createdAt,value
2017-04-06T00:01:02.097Z,9.83
2017-04-06T00:02:11.298Z,9.79
2017-04-06T00:03:20.246Z,9.78
2017-04-06T00:04:29.193Z,9.87
2017-04-06T00:05:38.147Z,9.81
2017-04-06T00:06:47.099Z,9.9
2017-04-06T00:07:56.300Z,9.86
2017-04-06T00:09:05.256Z,9.79
2017-04-06T00:10:14.207Z,9.87
2017-04-06T00:11:23.163Z,9.79
2017-04-06T00:12:32.113Z,9.76
2017-04-06T00:13:41.310Z,9.81
2017-04-06T00:14:50.272Z,9.79
2017-04-06T00:15:59.228Z,9.84
2017-04-06T00:17:08.178Z,9.87
2017-04-06T00:18:17.135Z,9.87
2017-04-06T00:19:26.338Z,9.87
2017-04-06T00:20:35.294Z,9.87
2017-04-06T00:21:44.243Z,9.86
2017-04-06T00:22:53.197Z,9.86
2017-04-06T00:24:02.150Z,9.87
2017-04-06T00:25:11.354Z,9.91
2017-04-06T00:26:20.302Z,9.89
2017-04-06T00:27:29.257Z,9.96
2017-04-06T00:28:38.205Z,9.97
2017-04-06T00:29:47.160Z,9.99
2017-04-06T00:30:56.365Z,10.04
2017-04-06T00:32:05.313Z,9.84
2017-04-06T00:33:14.262Z,9.87
2017-04-06T00:34:23.216Z,9.83
2017-04-06T00:35:32.491Z,9.78
2017-04-06T00:36:41.697Z,9.83
2017-04-06T00:37:50.644Z,9.81
2017-04-06T00:38:59.593Z,9.74
2017-04-06T00:40:08.546Z,9.72
2017-04-06T00:41:17.498Z,9.69
2017-04-06T00:42:26.703Z,9.78
2017-04-06T00:43:35.653Z,9.71
2017-04-06T00:44:44.604Z,9.64
2017-04-06T00:45:53.564Z,9.66
2017-04-06T00:47:02.515Z,9.69
2017-04-06T00:48:11.716Z,9.64
2017-04-06T00:49:20.667Z,9.65
2017-04-06T00:50:29.614Z,9.64
2017-04-06T00:51:38.571Z,9.64
2017-04-06T00:52:47.518Z,9.66
2017-04-06T00:53:56.720Z,9.69
2017-04-06T00:55:05.669Z,9.61
2017-04-06T00:56:14.619Z,9.76
2017-04-06T00:57:23.573Z,9.65
2017-04-06T00:58:32.519Z,9.69
2017-04-06T00:59:41.720Z,9.68
2017-04-06T01:00:50.671Z,9.64
2017-04-06T01:01:59.627Z,9.71
2017-04-06T01:03:08.583Z,9.69
2017-04-06T01:04:17.542Z,9.65
2017-04-06T01:05:26.744Z,9.66
2017-04-06T01:06:35.702Z,9.6
2017-04-06T01:07:44.660Z,9.64
2017-04-06T01:08:53.617Z,9.71
2017-04-06T01:10:02.569Z,9.68
2017-04-06T01:11:11.776Z,9.64
2017-04-06T01:12:20.727Z,9.69
2017-04-06T01:13:29.681Z,9.79
2017-04-06T01:14:38.659Z,9.66
2017-04-06T01:15:47.616Z,9.66
2017-04-06T01:16:56.821Z,9.69
2017-04-06T01:18:05.773Z,9.72
2017-04-06T01:19:14.728Z,9.69
2017-04-06T01:20:23.681Z,9.71
2017-04-06T01:21:32.633Z,9.75
2017-04-06T01:22:41.885Z,9.78
2017-04-06T01:23:50.837Z,9.81
2017-04-06T01:24:59.787Z,9.79
2017-04-06T01:26:08.739Z,9.78
2017-04-06T01:27:17.693Z,9.75
2017-04-06T01:28:26.891Z,9.72
2017-04-06T01:29:36.179Z,9.79
2017-04-06T01:30:45.130Z,9.76
2017-04-06T01:31:54.083Z,9.71
2017-04-06T01:33:03.045Z,9.64
2017-04-06T01:34:12.245Z,9.71
2017-04-06T01:35:21.523Z,9.6
2017-04-06T01:36:30.483Z,9.65
2017-04-06T01:37:39.436Z,9.56
2017-04-06T01:38:48.390Z,9.53
2017-04-06T01:39:57.589Z,9.53
2017-04-06T01:41:06.548Z,9.53
2017-04-06T01:42:15.503Z,9.51
2017-04-06T01:43:24.453Z,9.46
2017-04-06T01:44:33.406Z,9.39
2017-04-06T01:45:42.618Z,9.47
2017-04-06T01:46:51.570Z,9.47
2017-04-06T01:48:00.610Z,9.5
2017-04-06T01:49:09.560Z,9.36
2017-04-06T01:50:18.602Z,9.4
2017-04-06T01:51:27.841Z,9.43
2017-04-06T01:52:36.799Z,9.47
2017-04-06T01:53:45.755Z,9.47
2017-04-06T01:54:54.798Z,9.42
2017-04-06T01:56:03.748Z,9.46
2017-04-06T01:57:12.949Z,9.33
2017-04-06T01:58:21.900Z,9.35
2017-04-06T01:59:30.853Z,9.35
2017-04-06T02:00:40.145Z,9.28
2017-04-06T02:01:49.189Z,9.17
2017-04-06T02:02:58.390Z,9.21
2017-04-06T02:04:07.346Z,9.2
2017-04-06T02:05:16.311Z,9.13
2017-04-06T02:06:25.266Z,9.18
2017-04-06T02:07:34.225Z,9.15
2017-04-06T02:08:43.427Z,9.18
2017-04-06T02:09:52.376Z,9.14
2017-04-06T02:11:01.324Z,9.13
2017-04-06T02:12:10.273Z,9.11
2017-04-06T02:13:19.225Z,9.05
2017-04-06T02:14:28.428Z,9.02
2017-04-06T02:15:37.381Z,9.08
2017-04-06T02:16:46.324Z,9.04
2017-04-06T02:17:55.272Z,8.89
2017-04-06T02:19:04.232Z,8.99
2017-04-06T02:20:13.435Z,8.99
2017-04-06T02:21:22.394Z,8.86
2017-04-06T02:22:31.344Z,8.89
2017-04-06T02:23:40.290Z,8.89
2017-04-06T02:24:49.241Z,8.95
2017-04-06T02:25:58.441Z,8.96
2017-04-06T02:27:07.391Z,8.94
2017-04-06T02:28:16.375Z,8.94
2017-04-06T02:29:25.322Z,8.86
2017-04-06T02:30:34.277Z,8.89
2017-04-06T02:31:43.479Z,8.86
2017-04-06T02:32:52.432Z,8.87
2017-04-06T02:34:01.473Z,8.91
2017-04-06T02:35:10.436Z,8.87
2017-04-06T02:36:19.471Z,8.77
2017-04-06T02:37:28.673Z,8.8
2017-04-06T02:38:37.625Z,8.76
2017-04-06T02:39:46.574Z,8.8
2017-04-06T02:40:55.528Z,8.76
2017-04-06T02:42:04.484Z,8.8
2017-04-06T02:43:13.685Z,8.79
2017-04-06T02:44:22.634Z,8.87
2017-04-06T02:45:31.586Z,8.92
2017-04-06T02:46:40.535Z,8.87
2017-04-06T02:47:49.487Z,8.84
2017-04-06T02:48:58.694Z,8.86
2017-04-06T02:50:07.642Z,8.86
2017-04-06T02:51:16.595Z,8.81
2017-04-06T02:52:25.543Z,8.84
2017-04-06T02:53:34.491Z,8.83
2017-04-06T02:54:43.688Z,8.79
2017-04-06T02:55:52.640Z,8.84
2017-04-06T02:57:01.592Z,8.84
2017-04-06T02:58:10.558Z,8.83
2017-04-06T02:59:19.516Z,8.76
2017-04-06T03:00:28.717Z,8.81
2017-04-06T03:01:38.003Z,8.77
2017-04-06T03:02:46.957Z,8.74
2017-04-06T03:03:55.915Z,8.79
2017-04-06T03:05:04.871Z,8.76
2017-04-06T03:06:14.126Z,8.81
2017-04-06T03:07:23.076Z,8.81
2017-04-06T03:08:32.029Z,8.83
2017-04-06T03:09:40.980Z,8.81
2017-04-06T03:10:49.929Z,8.74
2017-04-06T03:11:59.182Z,8.76
2017-04-06T03:13:08.138Z,8.8
2017-04-06T03:14:17.412Z,8.79
2017-04-06T03:15:26.361Z,8.73
2017-04-06T03:16:35.649Z,8.84
2017-04-06T03:17:44.851Z,8.83
2017-04-06T03:18:53.802Z,8.87
2017-04-06T03:20:02.750Z,8.84
2017-04-06T03:21:11.812Z,8.92
2017-04-06T03:22:20.766Z,8.86
2017-04-06T03:23:29.969Z,8.92
2017-04-06T03:24:38.919Z,8.83
2017-04-06T03:25:47.871Z,8.87
2017-04-06T03:26:56.825Z,8.91
2017-04-06T03:28:05.772Z,8.87
2017-04-06T03:29:15.298Z,8.91
2017-04-06T03:30:24.248Z,8.89
2017-04-06T03:31:33.215Z,8.84
2017-04-06T03:32:42.482Z,8.8
2017-04-06T03:33:51.519Z,8.79
2017-04-06T03:35:00.727Z,8.86
2017-04-06T03:36:09.675Z,8.84
2017-04-06T03:37:18.626Z,8.71
2017-04-06T03:38:27.576Z,8.83
2017-04-06T03:39:36.523Z,8.8
2017-04-06T03:40:45.737Z,8.83
2017-04-06T03:41:54.690Z,8.83
2017-04-06T03:43:03.645Z,8.84
2017-04-06T03:44:12.603Z,8.8
2017-04-06T03:45:21.554Z,8.81
2017-04-06T03:46:30.771Z,8.76
2017-04-06T03:47:39.754Z,8.73
2017-04-06T03:48:48.703Z,8.86
2017-04-06T03:49:57.740Z,8.8
2017-04-06T03:51:06.692Z,8.77
2017-04-06T03:52:15.895Z,8.74
2017-04-06T03:53:24.845Z,8.91
2017-04-06T03:54:33.797Z,8.87
2017-04-06T03:55:42.746Z,8.89
2017-04-06T03:56:51.700Z,8.96
2017-04-06T03:58:00.949Z,8.92
2017-04-06T03:59:09.903Z,8.92
2017-04-06T04:00:18.857Z,8.91
2017-04-06T04:01:27.809Z,8.95
2017-04-06T04:02:36.756Z,8.96
2017-04-06T04:03:45.952Z,9.05
2017-04-06T04:04:54.905Z,9.04
2017-04-06T04:06:03.871Z,9.05
2017-04-06T04:07:12.825Z,8.99
2017-04-06T04:08:21.773Z,9.01
2017-04-06T04:09:30.968Z,9.01
2017-04-06T04:10:39.921Z,9.01
2017-04-06T04:11:48.871Z,8.98
2017-04-06T04:12:57.824Z,9.14
2017-04-06T04:14:06.779Z,9.11
2017-04-06T04:15:15.983Z,9.04
2017-04-06T04:16:24.969Z,9.1
2017-04-06T04:17:33.926Z,9.08
2017-04-06T04:18:42.873Z,9.1
2017-04-06T04:19:51.825Z,9.13
2017-04-06T04:21:01.099Z,9.14
2017-04-06T04:22:10.054Z,9.1
2017-04-06T04:23:19.004Z,9.11
2017-04-06T04:24:27.953Z,9.14
2017-04-06T04:25:36.925Z,9.13
2017-04-06T04:26:46.128Z,9.13
2017-04-06T04:27:55.086Z,9.21
2017-04-06T04:29:04.042Z,9.15
2017-04-06T04:30:12.992Z,9.1
2017-04-06T04:31:21.943Z,9.13
2017-04-06T04:32:31.150Z,9.21
2017-04-06T04:33:40.104Z,9.14
2017-04-06T04:34:49.066Z,9.11
2017-04-06T04:35:58.106Z,9.14
2017-04-06T04:37:07.063Z,9.1
2017-04-06T04:38:16.321Z,9.14
2017-04-06T04:39:25.273Z,9.01
2017-04-06T04:40:34.231Z,8.92
2017-04-06T04:41:43.193Z,8.89
2017-04-06T04:42:52.147Z,8.89
2017-04-06T04:44:01.371Z,8.84
2017-04-06T04:45:10.326Z,8.89
2017-04-06T04:46:19.285Z,8.91
2017-04-06T04:47:28.247Z,8.76
2017-04-06T04:48:37.525Z,8.87
2017-04-06T04:49:46.724Z,8.77
2017-04-06T04:50:55.678Z,8.8
2017-04-06T04:52:04.716Z,8.73
2017-04-06T04:53:13.663Z,8.84
2017-04-06T04:54:22.720Z,8.8
2017-04-06T04:55:31.969Z,8.71
2017-04-06T04:56:40.920Z,8.71
2017-04-06T04:57:49.873Z,8.77
2017-04-06T04:58:58.818Z,8.77
2017-04-06T05:00:07.766Z,8.73
2017-04-06T05:01:16.975Z,8.76
2017-04-06T05:02:25.930Z,8.84
2017-04-06T05:03:34.885Z,8.84
2017-04-06T05:04:43.933Z,8.84
2017-04-06T05:05:52.885Z,8.86
2017-04-06T05:07:02.091Z,8.84
2017-04-06T05:08:11.047Z,8.77
2017-04-06T05:09:20.000Z,8.83
2017-04-06T05:10:28.950Z,8.77
2017-04-06T05:11:37.900Z,8.87
2017-04-06T05:12:47.190Z,8.81
2017-04-06T05:13:56.173Z,8.71
2017-04-06T05:15:05.255Z,8.8
2017-04-06T05:16:14.303Z,8.83
2017-04-06T05:17:23.268Z,8.83
2017-04-06T05:18:32.472Z,8.71
2017-04-06T05:19:41.421Z,8.77
2017-04-06T05:20:50.374Z,8.73
2017-04-06T05:21:59.323Z,8.8
2017-04-06T05:23:08.600Z,8.74
2017-04-06T05:24:17.798Z,8.76
2017-04-06T05:25:26.747Z,8.8
2017-04-06T05:26:35.709Z,8.8
2017-04-06T05:27:44.682Z,8.83
2017-04-06T05:28:53.717Z,8.81
2017-04-06T05:30:02.918Z,8.77
2017-04-06T05:31:11.866Z,8.74
2017-04-06T05:32:20.818Z,8.66
2017-04-06T05:33:29.771Z,8.62
2017-04-06T05:34:38.721Z,8.63
2017-04-06T05:35:47.929Z,8.68
2017-04-06T05:36:56.878Z,8.59
2017-04-06T05:38:05.830Z,8.58
2017-04-06T05:39:14.865Z,8.61
2017-04-06T05:40:23.900Z,8.58
2017-04-06T05:41:34.176Z,8.62
2017-04-06T05:42:43.310Z,8.58
2017-04-06T05:43:52.257Z,8.58
2017-04-06T05:45:01.212Z,8.65
2017-04-06T05:46:10.166Z,8.56
2017-04-06T05:47:19.369Z,8.59
2017-04-06T05:48:28.319Z,8.62
2017-04-06T05:49:37.898Z,8.61
2017-04-06T05:50:47.409Z,8.56
2017-04-06T05:51:56.370Z,8.61
2017-04-06T05:53:05.580Z,8.63
2017-04-06T05:54:14.535Z,8.61
2017-04-06T05:55:23.486Z,8.71
2017-04-06T05:56:32.444Z,8.74
2017-04-06T05:57:41.393Z,8.7
2017-04-06T05:58:50.597Z,8.7
2017-04-06T05:59:59.546Z,8.74
2017-04-06T06:01:08.501Z,8.66
2017-04-06T06:02:17.561Z,8.68
2017-04-06T06:03:26.511Z,8.65
2017-04-06T06:04:35.717Z,8.76
2017-04-06T06:05:44.754Z,8.77
2017-04-06T06:06:53.703Z,8.8
2017-04-06T06:08:02.801Z,8.8
2017-04-06T06:09:11.846Z,8.77
2017-04-06T06:10:21.379Z,8.83
2017-04-06T06:11:30.329Z,8.8
2017-04-06T06:12:39.286Z,8.74
2017-04-06T06:13:48.324Z,8.74
2017-04-06T06:14:57.290Z,8.76
2017-04-06T06:16:06.546Z,8.71
2017-04-06T06:17:15.507Z,8.79
2017-04-06T06:18:24.789Z,8.77
2017-04-06T06:19:33.739Z,8.81
2017-04-06T06:20:42.691Z,8.71
2017-04-06T06:21:52.563Z,8.8
2017-04-06T06:23:01.537Z,8.7
2017-04-06T06:24:10.498Z,8.71
2017-04-06T06:25:19.452Z,8.66
2017-04-06T06:26:28.411Z,8.71
2017-04-06T06:27:37.705Z,8.79
2017-04-06T06:28:46.657Z,8.76
2017-04-06T06:29:55.692Z,8.86
2017-04-06T06:31:04.661Z,8.74
2017-04-06T06:32:13.702Z,8.83
2017-04-06T06:33:22.901Z,8.83
2017-04-06T06:34:31.861Z,8.83
2017-04-06T06:35:40.910Z,8.91
2017-04-06T06:36:49.866Z,8.89
2017-04-06T06:37:58.818Z,8.89
2017-04-06T06:39:08.106Z,8.94
2017-04-06T06:40:17.057Z,8.87
2017-04-06T06:41:26.006Z,9.01
2017-04-06T06:42:34.965Z,9.01
2017-04-06T06:43:44.244Z,9.04
2017-04-06T06:44:53.536Z,9.01
2017-04-06T06:46:02.488Z,9.1
2017-04-06T06:47:11.441Z,9.15
2017-04-06T06:48:20.392Z,9.13
2017-04-06T06:49:29.367Z,9.23
2017-04-06T06:50:38.571Z,9.11
2017-04-06T06:51:47.538Z,9.14
2017-04-06T06:52:56.542Z,9.13
2017-04-06T06:54:05.510Z,9.15
2017-04-06T06:55:14.486Z,9.23
2017-04-06T06:56:23.715Z,9.15
2017-04-06T06:57:32.686Z,9.17
2017-04-06T06:58:41.663Z,9.18
2017-04-06T06:59:50.648Z,9.23
2017-04-06T07:00:59.716Z,9.2
2017-04-06T07:02:08.937Z,9.17
2017-04-06T07:03:17.910Z,9.18
2017-04-06T07:04:26.884Z,9.31
2017-04-06T07:05:35.862Z,9.31
2017-04-06T07:06:44.861Z,9.36
2017-04-06T07:07:54.089Z,9.42
2017-04-06T07:09:03.087Z,9.36
2017-04-06T07:10:12.149Z,9.47
2017-04-06T07:11:21.124Z,9.47
2017-04-06T07:12:30.102Z,9.38
2017-04-06T07:13:39.332Z,9.38
2017-04-06T07:14:48.301Z,9.47
2017-04-06T07:15:57.277Z,9.4
2017-04-06T07:17:06.251Z,9.5
2017-04-06T07:18:15.233Z,9.5
2017-04-06T07:19:24.457Z,9.65
2017-04-06T07:20:33.461Z,9.66
2017-04-06T07:21:42.535Z,9.61
2017-04-06T07:22:51.686Z,9.76
2017-04-06T07:24:00.748Z,9.69
2017-04-06T07:25:09.977Z,9.71
2017-04-06T07:26:18.956Z,9.75
2017-04-06T07:27:27.928Z,9.86
2017-04-06T07:28:36.997Z,9.9
2017-04-06T07:29:45.976Z,9.87
2017-04-06T07:30:55.203Z,9.89
2017-04-06T07:32:04.184Z,9.89
2017-04-06T07:33:13.151Z,9.99
2017-04-06T07:34:22.213Z,10.02
2017-04-06T07:35:31.186Z,9.99
2017-04-06T07:36:40.412Z,10.01
2017-04-06T07:37:49.383Z,10.01
2017-04-06T07:38:58.357Z,10.02
2017-04-06T07:40:07.334Z,10.08
2017-04-06T07:41:16.312Z,10.11
2017-04-06T07:42:25.535Z,10.17
2017-04-06T07:43:34.598Z,10.26
2017-04-06T07:44:43.569Z,10.26
2017-04-06T07:45:52.544Z,10.26
2017-04-06T07:47:01.522Z,10.3
2017-04-06T07:48:10.750Z,10.23
2017-04-06T07:49:19.724Z,10.29
2017-04-06T07:50:28.707Z,10.25
2017-04-06T07:51:38.024Z,10.29
2017-04-06T07:52:46.993Z,10.26
2017-04-06T07:53:56.222Z,10.3
2017-04-06T07:55:05.199Z,10.4
2017-04-06T07:56:14.351Z,10.52
2017-04-06T07:57:23.343Z,10.51
2017-04-06T07:58:32.340Z,10.59
2017-04-06T07:59:41.738Z,10.56
2017-04-06T08:00:50.722Z,10.59
2017-04-06T08:01:59.795Z,10.52
2017-04-06T08:03:08.774Z,10.55
2017-04-06T08:04:17.750Z,10.56
2017-04-06T08:05:26.972Z,10.55
2017-04-06T08:06:35.963Z,10.52
2017-04-06T08:07:44.945Z,10.53
2017-04-06T08:08:53.927Z,10.63
2017-04-06T08:10:02.910Z,10.61
2017-04-06T08:11:12.181Z,10.73
2017-04-06T08:12:21.252Z,10.67
2017-04-06T08:13:30.319Z,10.68
2017-04-06T08:14:39.293Z,10.78
2017-04-06T08:15:48.273Z,10.76
2017-04-06T08:16:57.541Z,10.86
2017-04-06T08:18:06.509Z,10.89
2017-04-06T08:19:15.602Z,11
2017-04-06T08:20:24.587Z,10.97
2017-04-06T08:21:33.665Z,10.92
2017-04-06T08:22:42.872Z,11.07
2017-04-06T08:23:51.907Z,11.1
2017-04-06T08:25:00.942Z,11.09
2017-04-06T08:26:09.901Z,11.03
2017-04-06T08:27:18.854Z,11.14
2017-04-06T08:28:28.092Z,11.22
2017-04-06T08:29:37.044Z,11.24
2017-04-06T08:30:45.999Z,11.21
2017-04-06T08:31:55.075Z,11.24
2017-04-06T08:33:04.207Z,11.33
2017-04-06T08:34:13.808Z,11.27
2017-04-06T08:35:22.925Z,11.29
2017-04-06T08:36:32.198Z,11.36
2017-04-06T08:37:41.345Z,11.49
2017-04-06T08:38:50.397Z,11.46
2017-04-06T08:39:59.778Z,11.46
2017-04-06T08:41:09.007Z,11.46
2017-04-06T08:42:18.209Z,11.49
2017-04-06T08:43:27.239Z,11.51
2017-04-06T08:44:36.486Z,11.57
2017-04-06T08:45:46.170Z,11.52
2017-04-06T08:46:55.400Z,11.51
2017-04-06T08:48:04.750Z,11.62
2017-04-06T08:49:14.069Z,11.57
2017-04-06T08:50:23.286Z,11.64
2017-04-06T08:51:32.497Z,11.72
2017-04-06T08:52:41.562Z,11.67
2017-04-06T08:53:50.888Z,11.62
2017-04-06T08:54:59.885Z,11.7
2017-04-06T08:56:08.893Z,11.6
2017-04-06T08:57:18.103Z,11.72
2017-04-06T08:58:27.058Z,11.82
2017-04-06T08:59:36.013Z,11.83
2017-04-06T09:00:44.971Z,11.9
2017-04-06T09:01:54.176Z,11.98
2017-04-06T09:03:03.691Z,12.01
2017-04-06T09:04:12.833Z,11.95
2017-04-06T09:05:22.137Z,11.99
2017-04-06T09:06:31.375Z,11.94
2017-04-06T09:07:40.330Z,11.88
2017-04-06T09:08:50.195Z,11.91
2017-04-06T09:09:59.220Z,11.99
2017-04-06T09:11:08.182Z,12.01
2017-04-06T09:12:17.136Z,12.05
2017-04-06T09:13:26.150Z,12.14
2017-04-06T09:14:35.705Z,12.09
2017-04-06T09:15:44.751Z,12.16
2017-04-06T09:16:53.721Z,12.1
2017-04-06T09:18:02.994Z,12.1
2017-04-06T09:19:11.950Z,12.09
2017-04-06T09:20:21.153Z,12.05
2017-04-06T09:21:30.107Z,12.19
2017-04-06T09:22:39.058Z,12.23
2017-04-06T09:23:48.096Z,12.24
2017-04-06T09:24:57.130Z,12.27
2017-04-06T09:26:06.425Z,12.31
2017-04-06T09:27:15.709Z,12.37
2017-04-06T09:28:24.658Z,12.32
2017-04-06T09:29:33.612Z,12.35
2017-04-06T09:30:42.574Z,12.23
2017-04-06T09:31:51.828Z,12.13
2017-04-06T09:33:00.784Z,12.23
2017-04-06T09:34:09.827Z,12.27
2017-04-06T09:35:18.779Z,12.27
2017-04-06T09:36:27.737Z,12.24
2017-04-06T09:37:36.939Z,12.34
2017-04-06T09:38:45.983Z,12.34
2017-04-06T09:39:54.941Z,12.41
2017-04-06T09:41:03.892Z,12.5
2017-04-06T09:42:12.846Z,12.56
2017-04-06T09:43:22.076Z,12.6
2017-04-06T09:44:31.033Z,12.56
2017-04-06T09:45:40.325Z,12.67
2017-04-06T09:46:49.279Z,12.71
2017-04-06T09:47:58.236Z,12.79
2017-04-06T09:49:07.438Z,12.75
2017-04-06T09:50:16.392Z,12.82
2017-04-06T09:51:25.350Z,12.87
2017-04-06T09:52:34.306Z,13.07
2017-04-06T09:53:43.260Z,13.12
2017-04-06T09:54:52.509Z,13.15
2017-04-06T09:56:01.639Z,13.26
2017-04-06T09:57:10.595Z,13.25
2017-04-06T09:58:19.638Z,13.29
2017-04-06T09:59:28.592Z,13.3
2017-04-06T10:00:38.208Z,13.22
2017-04-06T10:01:47.166Z,13.23
2017-04-06T10:02:56.120Z,13.23
2017-04-06T10:04:05.125Z,13.2
2017-04-06T10:05:14.088Z,13.26
2017-04-06T10:06:23.293Z,13.29
2017-04-06T10:07:32.246Z,13.29
2017-04-06T10:08:41.205Z,13.26
2017-04-06T10:09:50.161Z,13.36
2017-04-06T10:10:59.129Z,13.42
2017-04-06T10:12:08.516Z,13.57
2017-04-06T10:13:17.537Z,13.71
2017-04-06T10:14:26.498Z,13.73
2017-04-06T10:15:35.452Z,13.73
2017-04-06T10:16:44.470Z,13.75
2017-04-06T10:17:53.681Z,13.77
2017-04-06T10:19:02.687Z,13.71
2017-04-06T10:20:11.670Z,13.66
2017-04-06T10:21:20.983Z,13.67
2017-04-06T10:22:29.937Z,13.6
2017-04-06T10:23:39.140Z,13.64
2017-04-06T10:24:48.098Z,13.66
2017-04-06T10:25:57.053Z,13.67
2017-04-06T10:27:06.008Z,13.71
2017-04-06T10:28:14.969Z,13.75
2017-04-06T10:29:24.180Z,13.81
2017-04-06T10:30:33.139Z,13.84
2017-04-06T10:31:42.094Z,13.89
2017-04-06T10:32:51.050Z,13.99
2017-04-06T10:34:00.184Z,13.96
2017-04-06T10:35:09.396Z,14.02
2017-04-06T10:36:18.352Z,14.09
2017-04-06T10:37:27.307Z,14.07
2017-04-06T10:38:36.260Z,14.07
2017-04-06T10:39:45.366Z,14.09
2017-04-06T10:40:54.628Z,14.12
2017-04-06T10:42:03.592Z,14.09
2017-04-06T10:43:12.548Z,14.04
2017-04-06T10:44:21.502Z,14.02
2017-04-06T10:45:30.550Z,14.03
2017-04-06T10:46:39.849Z,14.04
2017-04-06T10:47:48.880Z,14.17
2017-04-06T10:48:57.924Z,14.33
2017-04-06T10:50:06.879Z,14.32
2017-04-06T10:51:15.839Z,14.35
2017-04-06T10:52:25.131Z,14.36
2017-04-06T10:53:34.114Z,14.29
2017-04-06T10:54:43.728Z,14.25
2017-04-06T10:55:52.680Z,14.18
2017-04-06T10:57:01.636Z,14.1
2017-04-06T10:58:10.891Z,14.14
2017-04-06T10:59:19.845Z,14.14
2017-04-06T11:00:28.805Z,14.07
2017-04-06T11:01:37.763Z,14.14
2017-04-06T11:02:46.808Z,14.14
2017-04-06T11:03:56.061Z,14.2
2017-04-06T11:05:05.029Z,14.24
2017-04-06T11:06:13.983Z,14.2
2017-04-06T11:07:22.941Z,14.03
2017-04-06T11:08:31.899Z,14.07
2017-04-06T11:09:41.192Z,14.07
2017-04-06T11:10:50.145Z,14.14
2017-04-06T11:11:59.107Z,14.18
2017-04-06T11:13:08.064Z,14.06
2017-04-06T11:14:17.113Z,13.92
2017-04-06T11:15:26.324Z,13.99
2017-04-06T11:16:35.368Z,13.85
2017-04-06T11:17:44.322Z,13.88
2017-04-06T11:18:53.277Z,13.92
2017-04-06T11:20:02.233Z,13.95
2017-04-06T11:21:11.439Z,14.14
2017-04-06T11:22:20.398Z,14.2
2017-04-06T11:23:29.443Z,14.33
2017-04-06T11:24:38.574Z,14.36
2017-04-06T11:25:47.618Z,14.42
2017-04-06T11:26:56.875Z,14.5
2017-04-06T11:28:05.833Z,14.52
2017-04-06T11:29:14.787Z,14.62
2017-04-06T11:30:23.736Z,14.54
2017-04-06T11:31:32.693Z,14.47
2017-04-06T11:32:41.947Z,14.37
2017-04-06T11:33:50.899Z,14.33
2017-04-06T11:34:59.858Z,14.28
2017-04-06T11:36:08.817Z,14.28
2017-04-06T11:37:17.776Z,14.39
2017-04-06T11:38:26.984Z,14.39
2017-04-06T11:39:35.941Z,14.42
2017-04-06T11:40:44.896Z,14.68
2017-04-06T11:41:53.942Z,14.61
2017-04-06T11:43:02.987Z,14.73
2017-04-06T11:44:12.197Z,14.64
2017-04-06T11:45:21.161Z,14.68
2017-04-06T11:46:30.117Z,14.62
2017-04-06T11:47:39.075Z,14.6
2017-04-06T11:48:48.035Z,14.65
2017-04-06T11:49:57.377Z,14.68
2017-04-06T11:51:06.506Z,14.61
2017-04-06T11:52:15.551Z,14.6
2017-04-06T11:53:24.515Z,14.62
2017-04-06T11:54:33.473Z,14.72
2017-04-06T11:55:43.004Z,14.8
2017-04-06T11:56:51.977Z,14.91
2017-04-06T11:58:00.929Z,14.96
2017-04-06T11:59:09.976Z,15.02
2017-04-06T12:00:18.936Z,14.99
2017-04-06T12:01:28.152Z,15.01
2017-04-06T12:02:37.110Z,14.96
2017-04-06T12:03:46.068Z,14.99
2017-04-06T12:04:55.035Z,15.01
2017-04-06T12:06:03.988Z,14.91
2017-04-06T12:07:13.197Z,14.96
2017-04-06T12:08:22.236Z,15.02
2017-04-06T12:09:31.195Z,14.96
2017-04-06T12:10:40.486Z,14.81
2017-04-06T12:11:49.450Z,14.83
2017-04-06T12:12:58.657Z,14.68
2017-04-06T12:14:07.616Z,14.8
2017-04-06T12:15:16.575Z,14.68
2017-04-06T12:16:25.527Z,14.69
2017-04-06T12:17:34.478Z,14.65
2017-04-06T12:18:43.735Z,14.61
2017-04-06T12:19:52.691Z,14.65
2017-04-06T12:21:01.737Z,14.77
2017-04-06T12:22:10.695Z,14.7
2017-04-06T12:23:19.652Z,14.92
2017-04-06T12:24:28.859Z,14.84
2017-04-06T12:25:37.990Z,14.84
2017-04-06T12:26:47.033Z,14.81
2017-04-06T12:27:56.903Z,14.96
2017-04-06T12:29:07.320Z,14.96
2017-04-06T12:30:16.579Z,15.06
2017-04-06T12:31:25.544Z,15.02
2017-04-06T12:32:34.502Z,15.11
2017-04-06T12:33:43.464Z,15.23
2017-04-06T12:34:52.418Z,15.17
2017-04-06T12:36:01.631Z,15.38
2017-04-06T12:37:10.597Z,15.41
2017-04-06T12:38:19.653Z,15.41
2017-04-06T12:39:28.605Z,15.39
2017-04-06T12:40:37.563Z,15.49
2017-04-06T12:41:46.766Z,15.51
2017-04-06T12:42:55.810Z,15.57
2017-04-06T12:44:04.768Z,15.71
2017-04-06T12:45:13.731Z,15.67
2017-04-06T12:46:23.360Z,15.69
2017-04-06T12:47:32.570Z,15.65
2017-04-06T12:48:41.520Z,15.68
2017-04-06T12:49:50.471Z,15.72
2017-04-06T12:50:59.432Z,15.67
2017-04-06T12:52:08.396Z,15.57
2017-04-06T12:53:17.692Z,15.47
2017-04-06T12:54:27.660Z,15.44
2017-04-06T12:55:37.223Z,15.34
2017-04-06T12:56:46.462Z,15.38
2017-04-06T12:57:55.416Z,15.32
2017-04-06T12:59:05.249Z,15.25
2017-04-06T13:00:14.327Z,15.16
2017-04-06T13:01:23.283Z,15.11
2017-04-06T13:02:32.256Z,15.06
2017-04-06T13:03:41.214Z,15.03
2017-04-06T13:04:50.703Z,14.99
2017-04-06T13:05:59.660Z,14.98
2017-04-06T13:07:08.615Z,14.99
2017-04-06T13:08:17.694Z,15.01
2017-04-06T13:09:26.657Z,14.99
2017-04-06T13:10:35.867Z,15.02
2017-04-06T13:11:44.830Z,14.92
2017-04-06T13:12:54.078Z,14.95
2017-04-06T13:14:05.197Z,15.02
2017-04-06T13:15:14.151Z,15.09
2017-04-06T13:16:23.702Z,15.02
2017-04-06T13:17:32.661Z,15.17
2017-04-06T13:18:41.948Z,15.17
2017-04-06T13:19:51.006Z,15.35
2017-04-06T13:21:00.054Z,15.43
2017-04-06T13:22:09.266Z,15.41
2017-04-06T13:23:18.224Z,15.54
2017-04-06T13:24:27.178Z,15.53
2017-04-06T13:25:36.138Z,15.54
2017-04-06T13:26:45.107Z,15.71
2017-04-06T13:27:54.324Z,15.78
2017-04-06T13:29:03.459Z,15.86
2017-04-06T13:30:12.413Z,15.84
2017-04-06T13:31:21.393Z,15.76
2017-04-06T13:32:30.354Z,15.9
2017-04-06T13:33:39.653Z,15.92
2017-04-06T13:34:48.618Z,16
2017-04-06T13:35:57.921Z,16.11
2017-04-06T13:37:06.880Z,16.2
2017-04-06T13:38:15.844Z,16.09
2017-04-06T13:39:25.116Z,16.17
2017-04-06T13:40:34.080Z,16.09
2017-04-06T13:41:43.121Z,16.17
2017-04-06T13:42:52.085Z,16.04
2017-04-06T13:44:01.047Z,16
2017-04-06T13:45:10.258Z,15.97
2017-04-06T13:46:19.218Z,16.01
2017-04-06T13:47:28.177Z,16
2017-04-06T13:48:37.218Z,16.02
2017-04-06T13:49:46.172Z,15.97
2017-04-06T13:50:55.468Z,15.89
2017-04-06T13:52:04.512Z,15.97
2017-04-06T13:53:13.490Z,16
2017-04-06T13:54:22.469Z,16.01
2017-04-06T13:55:31.446Z,15.94
2017-04-06T13:56:40.681Z,15.89
2017-04-06T13:57:49.662Z,15.89
2017-04-06T13:58:58.642Z,15.86
2017-04-06T14:00:07.623Z,15.86
2017-04-06T14:01:16.604Z,15.89
2017-04-06T14:02:25.834Z,15.94
2017-04-06T14:03:34.819Z,15.92
2017-04-06T14:04:43.797Z,15.84
2017-04-06T14:05:52.775Z,15.78
2017-04-06T14:07:01.845Z,15.87
2017-04-06T14:08:11.071Z,15.82
2017-04-06T14:09:20.057Z,15.94
2017-04-06T14:10:29.041Z,15.89
2017-04-06T14:11:38.018Z,16.02
2017-04-06T14:12:47.009Z,15.97
2017-04-06T14:13:56.243Z,15.97
2017-04-06T14:15:05.224Z,16.04
2017-04-06T14:16:14.215Z,15.96
2017-04-06T14:17:23.205Z,15.97
2017-04-06T14:18:32.190Z,16.01
2017-04-06T14:19:41.479Z,16.11
2017-04-06T14:20:50.462Z,16.15
2017-04-06T14:21:59.450Z,16.09
2017-04-06T14:23:08.430Z,16.12
2017-04-06T14:24:17.405Z,16.11
2017-04-06T14:25:26.794Z,16.11
2017-04-06T14:26:35.777Z,16.05
2017-04-06T14:27:44.768Z,16.05
2017-04-06T14:28:53.759Z,15.89
2017-04-06T14:30:02.752Z,15.84
2017-04-06T14:31:12.024Z,15.86
2017-04-06T14:32:20.979Z,15.74
2017-04-06T14:33:29.937Z,15.76
2017-04-06T14:34:38.900Z,15.75
2017-04-06T14:35:47.860Z,15.84
2017-04-06T14:36:57.770Z,15.75
2017-04-06T14:38:06.753Z,15.75
2017-04-06T14:39:15.798Z,15.76
2017-04-06T14:40:24.888Z,15.69
2017-04-06T14:41:33.857Z,15.75
2017-04-06T14:42:43.061Z,15.72
2017-04-06T14:43:52.016Z,15.72
2017-04-06T14:45:01.002Z,15.64
2017-04-06T14:46:09.957Z,15.59
2017-04-06T14:47:18.919Z,15.6
2017-04-06T14:48:28.174Z,15.51
2017-04-06T14:49:37.136Z,15.6
2017-04-06T14:50:46.096Z,15.68
2017-04-06T14:51:55.081Z,15.56
2017-04-06T14:53:04.039Z,15.68
2017-04-06T14:54:13.246Z,15.71
2017-04-06T14:55:22.199Z,15.67
2017-04-06T14:56:31.154Z,15.74
2017-04-06T14:57:40.143Z,15.65
2017-04-06T14:58:49.098Z,15.56
2017-04-06T14:59:58.303Z,15.65
2017-04-06T15:01:07.345Z,15.69
2017-04-06T15:02:16.319Z,15.84
2017-04-06T15:03:25.280Z,15.82
2017-04-06T15:04:34.236Z,15.9
2017-04-06T15:05:43.577Z,15.92
2017-04-06T15:06:52.861Z,15.86
2017-04-06T15:08:01.819Z,16.01